Ames, Oklahoma
Current Conditions -  °F | °C
As of 4:13 AM on Saturday 20 Dec 2014 (Local Time) from KEND Reporting Station
Few Clouds Few Clouds  
Wind Chill: 26°   Ceiling: Unl
Heat Index: 32°   Visibility: 7mi
Dew Point: 30°   Wind: 7mph
Humidity: 93%   Direction: 180°S
Pressure: 30.18"   Gusts: NA
Location:  36.25°N, 98.19°W
Report Text: KEND 201013Z AUTO 18006KT 7SM R17C/5500FT FEW028 00/M01 A3018 RMK AO2
Loading
Personal Weather Stations






























Interactive Weather Map New forecast layout! Learn more

10-Day Weather Forecast

Advertisements
Track Severe Weather on mobile